sensor_id;sensor_type;location;lat;lon;timestamp;P1;durP1;ratioP1;P2;durP2;ratioP2
64643;SDS011;51056;50.330;7.914;2023-02-11T00:02:30;31.13;;;20.38;;
64643;SDS011;51056;50.330;7.914;2023-02-11T00:05:33;30.42;;;20.70;;
64643;SDS011;51056;50.330;7.914;2023-02-11T00:08:37;35.13;;;23.08;;
64643;SDS011;51056;50.330;7.914;2023-02-11T00:11:41;35.83;;;23.67;;
64643;SDS011;51056;50.330;7.914;2023-02-11T00:14:44;35.53;;;24.20;;
64643;SDS011;51056;50.330;7.914;2023-02-11T00:17:47;33.08;;;20.80;;
64643;SDS011;51056;50.330;7.914;2023-02-11T00:20:50;34.22;;;24.77;;
64643;SDS011;51056;50.330;7.914;2023-02-11T00:23:55;36.03;;;22.38;;
64643;SDS011;51056;50.330;7.914;2023-02-11T00:26:58;34.08;;;24.15;;
64643;SDS011;51056;50.330;7.914;2023-02-11T00:30:02;31.35;;;22.42;;
64643;SDS011;51056;50.330;7.914;2023-02-11T00:33:07;33.15;;;23.05;;
64643;SDS011;51056;50.330;7.914;2023-02-11T00:36:15;29.52;;;20.67;;
64643;SDS011;51056;50.330;7.914;2023-02-11T00:39:23;32.85;;;22.05;;
64643;SDS011;51056;50.330;7.914;2023-02-11T00:42:26;32.05;;;21.88;;
64643;SDS011;51056;50.330;7.914;2023-02-11T00:45:29;31.00;;;22.70;;
64643;SDS011;51056;50.330;7.914;2023-02-11T00:48:33;32.58;;;20.92;;
64643;SDS011;51056;50.330;7.914;2023-02-11T00:51:37;31.40;;;21.27;;
64643;SDS011;51056;50.330;7.914;2023-02-11T00:54:40;28.60;;;20.90;;
64643;SDS011;51056;50.330;7.914;2023-02-11T00:57:43;23.30;;;15.50;;
64643;SDS011;51056;50.330;7.914;2023-02-11T01:03:50;28.45;;;19.15;;
64643;SDS011;51056;50.330;7.914;2023-02-11T01:06:53;32.35;;;20.13;;
64643;SDS011;51056;50.330;7.914;2023-02-11T01:09:56;28.63;;;20.08;;
64643;SDS011;51056;50.330;7.914;2023-02-11T01:13:00;34.13;;;21.70;;
64643;SDS011;51056;50.330;7.914;2023-02-11T01:16:07;31.42;;;21.08;;
64643;SDS011;51056;50.330;7.914;2023-02-11T01:19:11;33.63;;;20.15;;
64643;SDS011;51056;50.330;7.914;2023-02-11T01:22:15;30.75;;;20.90;;
64643;SDS011;51056;50.330;7.914;2023-02-11T01:25:18;31.08;;;20.92;;
64643;SDS011;51056;50.330;7.914;2023-02-11T01:28:25;30.88;;;20.30;;
64643;SDS011;51056;50.330;7.914;2023-02-11T01:31:29;32.08;;;20.92;;
64643;SDS011;51056;50.330;7.914;2023-02-11T01:34:33;28.85;;;20.20;;
64643;SDS011;51056;50.330;7.914;2023-02-11T01:37:36;34.17;;;21.48;;
64643;SDS011;51056;50.330;7.914;2023-02-11T01:40:39;27.25;;;20.75;;
64643;SDS011;51056;50.330;7.914;2023-02-11T01:43:48;30.95;;;20.52;;
64643;SDS011;51056;50.330;7.914;2023-02-11T01:46:52;30.15;;;20.45;;
64643;SDS011;51056;50.330;7.914;2023-02-11T01:49:56;32.67;;;21.63;;
64643;SDS011;51056;50.330;7.914;2023-02-11T01:53:04;26.90;;;20.13;;
64643;SDS011;51056;50.330;7.914;2023-02-11T01:56:26;31.27;;;21.88;;
64643;SDS011;51056;50.330;7.914;2023-02-11T02:03:19;29.55;;;20.90;;
64643;SDS011;51056;50.330;7.914;2023-02-11T02:06:34;29.80;;;21.50;;
64643;SDS011;51056;50.330;7.914;2023-02-11T02:09:47;29.48;;;20.52;;
64643;SDS011;51056;50.330;7.914;2023-02-11T02:12:54;31.67;;;21.27;;
64643;SDS011;51056;50.330;7.914;2023-02-11T02:15:58;32.80;;;21.40;;
64643;SDS011;51056;50.330;7.914;2023-02-11T02:26:02;30.80;;;21.02;;
64643;SDS011;51056;50.330;7.914;2023-02-11T02:36:16;30.77;;;21.40;;
64643;SDS011;51056;50.330;7.914;2023-02-11T02:39:22;28.25;;;20.98;;
64643;SDS011;51056;50.330;7.914;2023-02-11T02:42:29;36.90;;;21.20;;
64643;SDS011;51056;50.330;7.914;2023-02-11T02:45:33;32.55;;;21.63;;
64643;SDS011;51056;50.330;7.914;2023-02-11T02:48:37;30.00;;;22.17;;
64643;SDS011;51056;50.330;7.914;2023-02-11T03:08:08;32.58;;;20.83;;
64643;SDS011;51056;50.330;7.914;2023-02-11T03:11:18;26.88;;;20.00;;
64643;SDS011;51056;50.330;7.914;2023-02-11T03:14:24;28.70;;;21.23;;
64643;SDS011;51056;50.330;7.914;2023-02-11T03:17:30;30.00;;;21.25;;
64643;SDS011;51056;50.330;7.914;2023-02-11T03:20:35;30.15;;;21.35;;
64643;SDS011;51056;50.330;7.914;2023-02-11T03:23:41;33.78;;;20.83;;
64643;SDS011;51056;50.330;7.914;2023-02-11T03:26:51;30.00;;;21.52;;
64643;SDS011;51056;50.330;7.914;2023-02-11T03:30:19;36.35;;;21.75;;
64643;SDS011;51056;50.330;7.914;2023-02-11T03:33:29;27.25;;;20.67;;
64643;SDS011;51056;50.330;7.914;2023-02-11T03:36:45;31.00;;;21.15;;
64643;SDS011;51056;50.330;7.914;2023-02-11T03:43:11;28.55;;;20.48;;
64643;SDS011;51056;50.330;7.914;2023-02-11T03:46:32;35.17;;;23.23;;
64643;SDS011;51056;50.330;7.914;2023-02-11T03:49:39;28.30;;;21.08;;
64643;SDS011;51056;50.330;7.914;2023-02-11T03:52:46;28.75;;;20.45;;
64643;SDS011;51056;50.330;7.914;2023-02-11T03:55:51;30.27;;;21.70;;
64643;SDS011;51056;50.330;7.914;2023-02-11T03:58:58;34.85;;;22.65;;
64643;SDS011;51056;50.330;7.914;2023-02-11T04:02:01;28.90;;;20.73;;
64643;SDS011;51056;50.330;7.914;2023-02-11T04:11:12;30.95;;;21.05;;
64643;SDS011;51056;50.330;7.914;2023-02-11T04:14:15;29.88;;;20.92;;
64643;SDS011;51056;50.330;7.914;2023-02-11T04:20:22;30.17;;;20.98;;
64643;SDS011;51056;50.330;7.914;2023-02-11T04:23:25;32.22;;;22.17;;
64643;SDS011;51056;50.330;7.914;2023-02-11T04:26:28;31.73;;;22.08;;
64643;SDS011;51056;50.330;7.914;2023-02-11T04:29:32;30.30;;;21.80;;
64643;SDS011;51056;50.330;7.914;2023-02-11T04:32:35;31.42;;;22.13;;
64643;SDS011;51056;50.330;7.914;2023-02-11T04:35:38;31.40;;;21.33;;
64643;SDS011;51056;50.330;7.914;2023-02-11T04:38:41;29.63;;;20.70;;
64643;SDS011;51056;50.330;7.914;2023-02-11T04:41:45;29.75;;;20.50;;
64643;SDS011;51056;50.330;7.914;2023-02-11T04:44:48;30.60;;;22.30;;
64643;SDS011;51056;50.330;7.914;2023-02-11T04:47:51;31.02;;;19.85;;
64643;SDS011;51056;50.330;7.914;2023-02-11T04:50:55;31.08;;;21.55;;
64643;SDS011;51056;50.330;7.914;2023-02-11T04:53:58;35.20;;;22.10;;
64643;SDS011;51056;50.330;7.914;2023-02-11T04:57:01;32.97;;;22.77;;
64643;SDS011;51056;50.330;7.914;2023-02-11T05:00:05;29.52;;;20.75;;
64643;SDS011;51056;50.330;7.914;2023-02-11T05:03:08;31.88;;;21.05;;
64643;SDS011;51056;50.330;7.914;2023-02-11T05:06:12;33.42;;;21.88;;
64643;SDS011;51056;50.330;7.914;2023-02-11T05:09:15;28.08;;;20.88;;
64643;SDS011;51056;50.330;7.914;2023-02-11T05:12:19;30.45;;;20.80;;
64643;SDS011;51056;50.330;7.914;2023-02-11T05:15:22;31.45;;;20.98;;
64643;SDS011;51056;50.330;7.914;2023-02-11T05:18:25;32.88;;;20.10;;
64643;SDS011;51056;50.330;7.914;2023-02-11T05:21:29;30.33;;;22.58;;
64643;SDS011;51056;50.330;7.914;2023-02-11T05:24:33;29.20;;;20.92;;
64643;SDS011;51056;50.330;7.914;2023-02-11T05:27:37;32.05;;;22.17;;
64643;SDS011;51056;50.330;7.914;2023-02-11T05:30:40;32.30;;;22.23;;
64643;SDS011;51056;50.330;7.914;2023-02-11T05:33:44;32.83;;;21.77;;
64643;SDS011;51056;50.330;7.914;2023-02-11T05:36:47;31.33;;;21.30;;
64643;SDS011;51056;50.330;7.914;2023-02-11T05:39:50;30.20;;;20.95;;
64643;SDS011;51056;50.330;7.914;2023-02-11T05:42:54;29.02;;;21.23;;
64643;SDS011;51056;50.330;7.914;2023-02-11T05:45:57;32.85;;;21.27;;
64643;SDS011;51056;50.330;7.914;2023-02-11T05:49:00;30.67;;;21.95;;
64643;SDS011;51056;50.330;7.914;2023-02-11T05:52:04;29.38;;;20.88;;
64643;SDS011;51056;50.330;7.914;2023-02-11T05:55:08;36.10;;;21.90;;
64643;SDS011;51056;50.330;7.914;2023-02-11T05:58:15;32.20;;;21.98;;
64643;SDS011;51056;50.330;7.914;2023-02-11T06:01:18;35.15;;;22.58;;
64643;SDS011;51056;50.330;7.914;2023-02-11T06:04:28;28.13;;;21.25;;
64643;SDS011;51056;50.330;7.914;2023-02-11T06:07:33;33.55;;;22.00;;
64643;SDS011;51056;50.330;7.914;2023-02-11T06:10:51;32.03;;;21.67;;
64643;SDS011;51056;50.330;7.914;2023-02-11T06:13:54;29.92;;;21.60;;
64643;SDS011;51056;50.330;7.914;2023-02-11T06:16:57;31.25;;;23.30;;
64643;SDS011;51056;50.330;7.914;2023-02-11T06:20:03;30.70;;;20.98;;
64643;SDS011;51056;50.330;7.914;2023-02-11T06:23:08;28.48;;;20.45;;
64643;SDS011;51056;50.330;7.914;2023-02-11T06:29:40;29.40;;;20.45;;
64643;SDS011;51056;50.330;7.914;2023-02-11T06:32:43;28.77;;;20.90;;
64643;SDS011;51056;50.330;7.914;2023-02-11T06:35:47;34.15;;;23.73;;
64643;SDS011;51056;50.330;7.914;2023-02-11T06:38:50;34.40;;;22.63;;
64643;SDS011;51056;50.330;7.914;2023-02-11T06:41:54;31.20;;;22.70;;
64643;SDS011;51056;50.330;7.914;2023-02-11T06:48:01;37.92;;;26.27;;
64643;SDS011;51056;50.330;7.914;2023-02-11T06:51:05;34.03;;;25.02;;
64643;SDS011;51056;50.330;7.914;2023-02-11T06:54:13;36.03;;;24.80;;
64643;SDS011;51056;50.330;7.914;2023-02-11T06:57:37;34.20;;;23.80;;
64643;SDS011;51056;50.330;7.914;2023-02-11T07:00:43;35.05;;;24.75;;
64643;SDS011;51056;50.330;7.914;2023-02-11T07:03:47;33.55;;;23.05;;
64643;SDS011;51056;50.330;7.914;2023-02-11T07:09:53;36.35;;;25.02;;
64643;SDS011;51056;50.330;7.914;2023-02-11T07:12:56;35.10;;;24.35;;
64643;SDS011;51056;50.330;7.914;2023-02-11T07:16:02;33.88;;;23.65;;
64643;SDS011;51056;50.330;7.914;2023-02-11T07:20:00;32.70;;;23.23;;
64643;SDS011;51056;50.330;7.914;2023-02-11T07:23:03;35.42;;;22.88;;
64643;SDS011;51056;50.330;7.914;2023-02-11T07:26:08;33.55;;;23.38;;
64643;SDS011;51056;50.330;7.914;2023-02-11T07:29:14;35.35;;;24.75;;
64643;SDS011;51056;50.330;7.914;2023-02-11T07:32:17;73.10;;;52.58;;
64643;SDS011;51056;50.330;7.914;2023-02-11T07:35:20;61.50;;;34.72;;
64643;SDS011;51056;50.330;7.914;2023-02-11T07:38:24;91.85;;;68.93;;
64643;SDS011;51056;50.330;7.914;2023-02-11T07:44:30;39.30;;;29.05;;
64643;SDS011;51056;50.330;7.914;2023-02-11T07:47:36;46.83;;;32.78;;
64643;SDS011;51056;50.330;7.914;2023-02-11T07:50:40;49.00;;;33.38;;
64643;SDS011;51056;50.330;7.914;2023-02-11T07:53:44;45.67;;;31.85;;
64643;SDS011;51056;50.330;7.914;2023-02-11T07:56:48;43.28;;;29.33;;
64643;SDS011;51056;50.330;7.914;2023-02-11T07:59:51;42.63;;;29.15;;
64643;SDS011;51056;50.330;7.914;2023-02-11T08:02:57;38.70;;;28.23;;
64643;SDS011;51056;50.330;7.914;2023-02-11T08:06:05;39.50;;;27.17;;
64643;SDS011;51056;50.330;7.914;2023-02-11T08:09:13;34.17;;;23.27;;
64643;SDS011;51056;50.330;7.914;2023-02-11T08:12:18;30.83;;;24.27;;
64643;SDS011;51056;50.330;7.914;2023-02-11T08:15:21;36.03;;;27.15;;
64643;SDS011;51056;50.330;7.914;2023-02-11T08:18:25;40.25;;;26.17;;
64643;SDS011;51056;50.330;7.914;2023-02-11T08:21:28;36.67;;;27.15;;
64643;SDS011;51056;50.330;7.914;2023-02-11T08:24:32;33.90;;;24.58;;
64643;SDS011;51056;50.330;7.914;2023-02-11T08:27:38;52.40;;;36.92;;
64643;SDS011;51056;50.330;7.914;2023-02-11T08:30:43;47.20;;;33.70;;
64643;SDS011;51056;50.330;7.914;2023-02-11T08:33:46;45.92;;;31.80;;
64643;SDS011;51056;50.330;7.914;2023-02-11T08:36:50;33.95;;;26.27;;
64643;SDS011;51056;50.330;7.914;2023-02-11T08:39:53;36.85;;;27.38;;
64643;SDS011;51056;50.330;7.914;2023-02-11T08:42:57;41.22;;;29.33;;
64643;SDS011;51056;50.330;7.914;2023-02-11T08:46:00;38.00;;;27.67;;
64643;SDS011;51056;50.330;7.914;2023-02-11T08:52:07;34.88;;;25.98;;
64643;SDS011;51056;50.330;7.914;2023-02-11T08:55:11;34.97;;;25.33;;
64643;SDS011;51056;50.330;7.914;2023-02-11T08:58:14;34.10;;;22.67;;
64643;SDS011;51056;50.330;7.914;2023-02-11T09:01:19;32.42;;;23.13;;
64643;SDS011;51056;50.330;7.914;2023-02-11T09:04:24;31.35;;;22.80;;
64643;SDS011;51056;50.330;7.914;2023-02-11T09:07:28;33.65;;;25.15;;
64643;SDS011;51056;50.330;7.914;2023-02-11T09:10:31;35.53;;;25.05;;
64643;SDS011;51056;50.330;7.914;2023-02-11T09:13:36;30.48;;;23.92;;
64643;SDS011;51056;50.330;7.914;2023-02-11T09:16:46;38.38;;;26.23;;
64643;SDS011;51056;50.330;7.914;2023-02-11T09:19:50;43.35;;;29.08;;
64643;SDS011;51056;50.330;7.914;2023-02-11T09:22:53;56.30;;;32.05;;
64643;SDS011;51056;50.330;7.914;2023-02-11T09:26:09;40.92;;;27.70;;
64643;SDS011;51056;50.330;7.914;2023-02-11T09:29:14;57.22;;;32.95;;
64643;SDS011;51056;50.330;7.914;2023-02-11T09:32:18;70.65;;;36.60;;
64643;SDS011;51056;50.330;7.914;2023-02-11T09:35:21;40.90;;;28.15;;
64643;SDS011;51056;50.330;7.914;2023-02-11T09:41:39;98.65;;;45.38;;
64643;SDS011;51056;50.330;7.914;2023-02-11T09:44:44;62.97;;;34.58;;
64643;SDS011;51056;50.330;7.914;2023-02-11T09:48:00;47.85;;;28.55;;
64643;SDS011;51056;50.330;7.914;2023-02-11T09:51:50;92.60;;;40.45;;
64643;SDS011;51056;50.330;7.914;2023-02-11T09:58:04;122.65;;;50.00;;
64643;SDS011;51056;50.330;7.914;2023-02-11T10:12:24;94.75;;;44.55;;
64643;SDS011;51056;50.330;7.914;2023-02-11T10:15:44;58.67;;;35.10;;
64643;SDS011;51056;50.330;7.914;2023-02-11T10:22:27;43.95;;;28.63;;
64643;SDS011;51056;50.330;7.914;2023-02-11T10:25:40;39.28;;;26.52;;
64643;SDS011;51056;50.330;7.914;2023-02-11T10:28:51;36.58;;;24.52;;
64643;SDS011;51056;50.330;7.914;2023-02-11T10:31:57;34.67;;;24.77;;
64643;SDS011;51056;50.330;7.914;2023-02-11T10:35:09;40.30;;;29.52;;
64643;SDS011;51056;50.330;7.914;2023-02-11T10:41:21;34.03;;;26.10;;
64643;SDS011;51056;50.330;7.914;2023-02-11T10:44:35;32.28;;;23.35;;
64643;SDS011;51056;50.330;7.914;2023-02-11T10:47:40;33.53;;;24.05;;
64643;SDS011;51056;50.330;7.914;2023-02-11T10:50:44;46.15;;;28.30;;
64643;SDS011;51056;50.330;7.914;2023-02-11T10:54:10;37.30;;;25.17;;
64643;SDS011;51056;50.330;7.914;2023-02-11T10:57:17;46.75;;;29.60;;
64643;SDS011;51056;50.330;7.914;2023-02-11T11:03:30;54.35;;;32.42;;
64643;SDS011;51056;50.330;7.914;2023-02-11T11:06:47;44.92;;;28.40;;
64643;SDS011;51056;50.330;7.914;2023-02-11T11:09:52;47.85;;;30.75;;
64643;SDS011;51056;50.330;7.914;2023-02-11T11:13:00;37.28;;;26.05;;
64643;SDS011;51056;50.330;7.914;2023-02-11T11:19:21;35.53;;;27.15;;
64643;SDS011;51056;50.330;7.914;2023-02-11T11:22:25;31.67;;;25.00;;
64643;SDS011;51056;50.330;7.914;2023-02-11T11:25:29;30.13;;;23.20;;
64643;SDS011;51056;50.330;7.914;2023-02-11T11:32:12;35.65;;;24.55;;
64643;SDS011;51056;50.330;7.914;2023-02-11T11:35:28;31.38;;;22.73;;
64643;SDS011;51056;50.330;7.914;2023-02-11T11:38:42;28.75;;;21.92;;
64643;SDS011;51056;50.330;7.914;2023-02-11T11:41:59;36.30;;;25.70;;
64643;SDS011;51056;50.330;7.914;2023-02-11T11:45:17;33.10;;;23.42;;
64643;SDS011;51056;50.330;7.914;2023-02-11T11:51:34;30.95;;;22.48;;
64643;SDS011;51056;50.330;7.914;2023-02-11T11:54:42;27.85;;;21.17;;
64643;SDS011;51056;50.330;7.914;2023-02-11T11:57:52;30.65;;;22.63;;
64643;SDS011;51056;50.330;7.914;2023-02-11T12:08:06;47.38;;;28.58;;
64643;SDS011;51056;50.330;7.914;2023-02-11T12:32:25;30.00;;;22.00;;
64643;SDS011;51056;50.330;7.914;2023-02-11T12:35:42;26.38;;;20.08;;
64643;SDS011;51056;50.330;7.914;2023-02-11T12:39:05;25.92;;;19.00;;
64643;SDS011;51056;50.330;7.914;2023-02-11T12:46:05;31.73;;;22.92;;
64643;SDS011;51056;50.330;7.914;2023-02-11T12:49:23;29.10;;;21.52;;
64643;SDS011;51056;50.330;7.914;2023-02-11T12:55:35;27.00;;;21.48;;
64643;SDS011;51056;50.330;7.914;2023-02-11T12:58:49;28.88;;;19.63;;
64643;SDS011;51056;50.330;7.914;2023-02-11T13:01:57;26.05;;;19.25;;
64643;SDS011;51056;50.330;7.914;2023-02-11T13:05:26;72.28;;;48.67;;
64643;SDS011;51056;50.330;7.914;2023-02-11T13:08:41;50.25;;;33.60;;
64643;SDS011;51056;50.330;7.914;2023-02-11T13:11:51;52.22;;;32.15;;
64643;SDS011;51056;50.330;7.914;2023-02-11T13:15:02;37.47;;;29.73;;
64643;SDS011;51056;50.330;7.914;2023-02-11T13:24:40;27.52;;;19.05;;
64643;SDS011;51056;50.330;7.914;2023-02-11T13:31:19;23.48;;;18.20;;
64643;SDS011;51056;50.330;7.914;2023-02-11T13:34:23;24.27;;;15.82;;
64643;SDS011;51056;50.330;7.914;2023-02-11T13:37:53;35.95;;;26.52;;
64643;SDS011;51056;50.330;7.914;2023-02-11T13:47:13;18.70;;;14.27;;
64643;SDS011;51056;50.330;7.914;2023-02-11T13:50:28;20.95;;;14.88;;
64643;SDS011;51056;50.330;7.914;2023-02-11T14:03:38;20.38;;;15.00;;
64643;SDS011;51056;50.330;7.914;2023-02-11T14:07:30;17.55;;;13.90;;
64643;SDS011;51056;50.330;7.914;2023-02-11T14:10:54;19.92;;;12.50;;
64643;SDS011;51056;50.330;7.914;2023-02-11T14:23:38;17.67;;;12.50;;
64643;SDS011;51056;50.330;7.914;2023-02-11T14:27:16;16.38;;;12.45;;
64643;SDS011;51056;50.330;7.914;2023-02-11T14:43:26;14.32;;;11.30;;
64643;SDS011;51056;50.330;7.914;2023-02-11T14:46:35;15.90;;;12.25;;
64643;SDS011;51056;50.330;7.914;2023-02-11T14:49:40;16.08;;;11.95;;
64643;SDS011;51056;50.330;7.914;2023-02-11T14:52:44;14.98;;;12.20;;
64643;SDS011;51056;50.330;7.914;2023-02-11T14:55:50;22.48;;;13.15;;
64643;SDS011;51056;50.330;7.914;2023-02-11T14:58:55;16.55;;;12.40;;
64643;SDS011;51056;50.330;7.914;2023-02-11T15:01:59;16.23;;;12.18;;
64643;SDS011;51056;50.330;7.914;2023-02-11T15:05:21;20.10;;;13.25;;
64643;SDS011;51056;50.330;7.914;2023-02-11T15:08:30;14.85;;;11.45;;
64643;SDS011;51056;50.330;7.914;2023-02-11T15:11:43;16.42;;;12.07;;
64643;SDS011;51056;50.330;7.914;2023-02-11T15:14:50;15.05;;;11.50;;
64643;SDS011;51056;50.330;7.914;2023-02-11T15:17:57;13.77;;;11.15;;
64643;SDS011;51056;50.330;7.914;2023-02-11T15:21:06;14.25;;;11.27;;
64643;SDS011;51056;50.330;7.914;2023-02-11T15:24:24;20.33;;;10.70;;
64643;SDS011;51056;50.330;7.914;2023-02-11T15:31:15;21.98;;;11.45;;
64643;SDS011;51056;50.330;7.914;2023-02-11T15:34:20;19.13;;;11.60;;
64643;SDS011;51056;50.330;7.914;2023-02-11T15:37:26;13.88;;;10.98;;
64643;SDS011;51056;50.330;7.914;2023-02-11T15:40:33;18.45;;;12.02;;
64643;SDS011;51056;50.330;7.914;2023-02-11T15:43:48;16.70;;;11.80;;
64643;SDS011;51056;50.330;7.914;2023-02-11T15:46:55;17.90;;;11.77;;
64643;SDS011;51056;50.330;7.914;2023-02-11T15:50:00;31.70;;;12.88;;
64643;SDS011;51056;50.330;7.914;2023-02-11T15:53:26;14.30;;;12.07;;
64643;SDS011;51056;50.330;7.914;2023-02-11T15:56:40;20.42;;;11.40;;
64643;SDS011;51056;50.330;7.914;2023-02-11T15:59:47;24.75;;;17.50;;
64643;SDS011;51056;50.330;7.914;2023-02-11T16:02:52;39.80;;;29.80;;
64643;SDS011;51056;50.330;7.914;2023-02-11T16:09:03;24.33;;;16.40;;
64643;SDS011;51056;50.330;7.914;2023-02-11T16:12:24;20.70;;;16.88;;
64643;SDS011;51056;50.330;7.914;2023-02-11T16:18:37;33.78;;;27.80;;
64643;SDS011;51056;50.330;7.914;2023-02-11T16:21:49;42.15;;;32.05;;
64643;SDS011;51056;50.330;7.914;2023-02-11T16:24:54;40.72;;;28.77;;
64643;SDS011;51056;50.330;7.914;2023-02-11T16:28:03;41.80;;;30.92;;
64643;SDS011;51056;50.330;7.914;2023-02-11T16:31:07;29.38;;;22.10;;
64643;SDS011;51056;50.330;7.914;2023-02-11T16:38:47;24.85;;;18.38;;
64643;SDS011;51056;50.330;7.914;2023-02-11T16:41:51;23.20;;;17.23;;
64643;SDS011;51056;50.330;7.914;2023-02-11T16:47:59;38.05;;;27.20;;
64643;SDS011;51056;50.330;7.914;2023-02-11T16:51:04;26.45;;;20.35;;
64643;SDS011;51056;50.330;7.914;2023-02-11T16:54:19;24.83;;;19.13;;
64643;SDS011;51056;50.330;7.914;2023-02-11T16:57:24;28.55;;;19.77;;
64643;SDS011;51056;50.330;7.914;2023-02-11T17:00:28;24.70;;;18.13;;
64643;SDS011;51056;50.330;7.914;2023-02-11T17:03:31;22.65;;;16.73;;
64643;SDS011;51056;50.330;7.914;2023-02-11T17:06:39;21.25;;;15.07;;
64643;SDS011;51056;50.330;7.914;2023-02-11T17:12:46;19.67;;;13.13;;
64643;SDS011;51056;50.330;7.914;2023-02-11T17:15:50;17.45;;;13.80;;
64643;SDS011;51056;50.330;7.914;2023-02-11T17:18:53;23.13;;;14.27;;
64643;SDS011;51056;50.330;7.914;2023-02-11T17:21:57;18.60;;;12.90;;
64643;SDS011;51056;50.330;7.914;2023-02-11T17:25:00;17.67;;;12.30;;
64643;SDS011;51056;50.330;7.914;2023-02-11T17:28:03;14.15;;;11.85;;
64643;SDS011;51056;50.330;7.914;2023-02-11T17:31:07;15.55;;;11.13;;
64643;SDS011;51056;50.330;7.914;2023-02-11T17:34:11;17.92;;;12.48;;
64643;SDS011;51056;50.330;7.914;2023-02-11T17:40:17;17.05;;;12.00;;
64643;SDS011;51056;50.330;7.914;2023-02-11T17:43:21;20.10;;;11.23;;
64643;SDS011;51056;50.330;7.914;2023-02-11T17:49:29;18.92;;;12.25;;
64643;SDS011;51056;50.330;7.914;2023-02-11T17:55:38;18.23;;;12.77;;
64643;SDS011;51056;50.330;7.914;2023-02-11T17:58:42;18.48;;;13.52;;
64643;SDS011;51056;50.330;7.914;2023-02-11T18:01:45;18.90;;;13.02;;
64643;SDS011;51056;50.330;7.914;2023-02-11T18:04:49;17.10;;;12.75;;
64643;SDS011;51056;50.330;7.914;2023-02-11T18:07:54;18.58;;;12.40;;
64643;SDS011;51056;50.330;7.914;2023-02-11T18:10:58;19.38;;;13.45;;
64643;SDS011;51056;50.330;7.914;2023-02-11T18:20:09;29.85;;;18.67;;
64643;SDS011;51056;50.330;7.914;2023-02-11T18:23:13;22.90;;;15.18;;
64643;SDS011;51056;50.330;7.914;2023-02-11T18:26:17;17.25;;;12.02;;
64643;SDS011;51056;50.330;7.914;2023-02-11T18:29:25;20.00;;;14.23;;
64643;SDS011;51056;50.330;7.914;2023-02-11T18:32:33;36.25;;;22.30;;
64643;SDS011;51056;50.330;7.914;2023-02-11T18:35:37;28.58;;;18.75;;
64643;SDS011;51056;50.330;7.914;2023-02-11T18:38:41;19.42;;;13.57;;
64643;SDS011;51056;50.330;7.914;2023-02-11T18:41:47;28.13;;;20.92;;
64643;SDS011;51056;50.330;7.914;2023-02-11T18:44:52;40.45;;;26.77;;
64643;SDS011;51056;50.330;7.914;2023-02-11T18:47:56;28.25;;;19.23;;
64643;SDS011;51056;50.330;7.914;2023-02-11T18:50:59;24.65;;;14.90;;
64643;SDS011;51056;50.330;7.914;2023-02-11T18:54:02;21.35;;;14.68;;
64643;SDS011;51056;50.330;7.914;2023-02-11T18:57:06;23.40;;;17.23;;
64643;SDS011;51056;50.330;7.914;2023-02-11T19:06:19;18.20;;;12.13;;
64643;SDS011;51056;50.330;7.914;2023-02-11T19:09:24;17.45;;;12.10;;
64643;SDS011;51056;50.330;7.914;2023-02-11T19:12:27;16.80;;;12.35;;
64643;SDS011;51056;50.330;7.914;2023-02-11T19:21:43;16.35;;;11.95;;
64643;SDS011;51056;50.330;7.914;2023-02-11T19:24:48;16.20;;;11.98;;
64643;SDS011;51056;50.330;7.914;2023-02-11T19:27:59;18.77;;;12.52;;
64643;SDS011;51056;50.330;7.914;2023-02-11T19:34:10;17.00;;;13.23;;
64643;SDS011;51056;50.330;7.914;2023-02-11T19:37:15;16.23;;;12.25;;
64643;SDS011;51056;50.330;7.914;2023-02-11T19:40:19;16.33;;;12.07;;
64643;SDS011;51056;50.330;7.914;2023-02-11T19:43:26;21.88;;;15.15;;
64643;SDS011;51056;50.330;7.914;2023-02-11T19:46:31;18.10;;;12.55;;
64643;SDS011;51056;50.330;7.914;2023-02-11T19:49:37;14.93;;;12.38;;
64643;SDS011;51056;50.330;7.914;2023-02-11T19:52:42;17.75;;;12.50;;
64643;SDS011;51056;50.330;7.914;2023-02-11T19:58:56;20.48;;;16.20;;
64643;SDS011;51056;50.330;7.914;2023-02-11T20:02:01;22.63;;;17.92;;
64643;SDS011;51056;50.330;7.914;2023-02-11T20:05:06;20.90;;;17.42;;
64643;SDS011;51056;50.330;7.914;2023-02-11T20:08:10;24.27;;;16.10;;
64643;SDS011;51056;50.330;7.914;2023-02-11T20:11:19;20.27;;;14.82;;
64643;SDS011;51056;50.330;7.914;2023-02-11T20:14:25;20.00;;;14.48;;
64643;SDS011;51056;50.330;7.914;2023-02-11T20:17:42;22.00;;;15.70;;
64643;SDS011;51056;50.330;7.914;2023-02-11T20:23:48;20.08;;;15.57;;
64643;SDS011;51056;50.330;7.914;2023-02-11T20:26:53;23.50;;;17.25;;
64643;SDS011;51056;50.330;7.914;2023-02-11T20:29:59;23.90;;;17.70;;
64643;SDS011;51056;50.330;7.914;2023-02-11T20:33:02;21.25;;;16.77;;
64643;SDS011;51056;50.330;7.914;2023-02-11T20:36:12;27.20;;;17.67;;
64643;SDS011;51056;50.330;7.914;2023-02-11T20:39:20;20.15;;;16.05;;
64643;SDS011;51056;50.330;7.914;2023-02-11T20:42:29;23.17;;;16.98;;
64643;SDS011;51056;50.330;7.914;2023-02-11T20:45:38;19.40;;;14.68;;
64643;SDS011;51056;50.330;7.914;2023-02-11T20:48:41;20.88;;;15.98;;
64643;SDS011;51056;50.330;7.914;2023-02-11T20:51:45;19.45;;;15.90;;
64643;SDS011;51056;50.330;7.914;2023-02-11T20:54:51;22.65;;;16.02;;
64643;SDS011;51056;50.330;7.914;2023-02-11T20:58:03;21.05;;;15.65;;
64643;SDS011;51056;50.330;7.914;2023-02-11T21:01:08;23.77;;;17.17;;
64643;SDS011;51056;50.330;7.914;2023-02-11T21:04:16;19.95;;;15.45;;
64643;SDS011;51056;50.330;7.914;2023-02-11T21:07:25;22.88;;;15.77;;
64643;SDS011;51056;50.330;7.914;2023-02-11T21:10:30;19.38;;;15.48;;
64643;SDS011;51056;50.330;7.914;2023-02-11T21:13:35;21.52;;;15.57;;
64643;SDS011;51056;50.330;7.914;2023-02-11T21:16:39;22.73;;;15.52;;
64643;SDS011;51056;50.330;7.914;2023-02-11T21:19:43;25.25;;;16.25;;
64643;SDS011;51056;50.330;7.914;2023-02-11T21:22:47;30.85;;;17.92;;
64643;SDS011;51056;50.330;7.914;2023-02-11T21:25:54;20.40;;;15.50;;
64643;SDS011;51056;50.330;7.914;2023-02-11T21:28:59;21.92;;;17.30;;
64643;SDS011;51056;50.330;7.914;2023-02-11T21:32:08;23.70;;;16.10;;
64643;SDS011;51056;50.330;7.914;2023-02-11T21:35:11;20.08;;;15.38;;
64643;SDS011;51056;50.330;7.914;2023-02-11T21:38:14;19.48;;;14.65;;
64643;SDS011;51056;50.330;7.914;2023-02-11T21:41:18;18.90;;;14.95;;
64643;SDS011;51056;50.330;7.914;2023-02-11T21:44:24;21.55;;;15.50;;
64643;SDS011;51056;50.330;7.914;2023-02-11T21:50:31;19.40;;;13.60;;
64643;SDS011;51056;50.330;7.914;2023-02-11T21:53:35;19.35;;;14.80;;
64643;SDS011;51056;50.330;7.914;2023-02-11T21:59:42;17.95;;;13.27;;
64643;SDS011;51056;50.330;7.914;2023-02-11T22:02:45;21.40;;;16.13;;
64643;SDS011;51056;50.330;7.914;2023-02-11T22:05:48;20.75;;;15.27;;
64643;SDS011;51056;50.330;7.914;2023-02-11T22:08:52;24.45;;;15.00;;
64643;SDS011;51056;50.330;7.914;2023-02-11T22:11:56;23.65;;;15.10;;
64643;SDS011;51056;50.330;7.914;2023-02-11T22:15:00;29.23;;;21.13;;
64643;SDS011;51056;50.330;7.914;2023-02-11T22:18:03;24.10;;;16.00;;
64643;SDS011;51056;50.330;7.914;2023-02-11T22:21:08;19.50;;;14.75;;
64643;SDS011;51056;50.330;7.914;2023-02-11T22:24:13;23.50;;;16.35;;